createdAt,value
2019-01-11T00:00:14.106Z,86.80
2019-01-11T00:02:47.782Z,86.70
2019-01-11T00:05:20.010Z,87.10
2019-01-11T00:07:52.281Z,86.30
2019-01-11T00:10:24.755Z,86.00
2019-01-11T00:12:57.127Z,85.80
2019-01-11T00:15:30.211Z,85.70
2019-01-11T00:18:02.256Z,85.60
2019-01-11T00:20:34.632Z,84.60
2019-01-11T00:23:07.788Z,84.00
2019-01-11T00:25:40.444Z,83.20
2019-01-11T00:28:12.693Z,83.40
2019-01-11T00:30:44.881Z,83.10
2019-01-11T00:33:17.285Z,83.00
2019-01-11T00:35:49.620Z,82.30
2019-01-11T00:38:22.241Z,82.30
2019-01-11T00:40:54.875Z,82.60
2019-01-11T00:43:27.100Z,80.90
2019-01-11T00:45:59.370Z,80.00
2019-01-11T00:48:31.529Z,79.10
2019-01-11T00:51:03.968Z,78.80
2019-01-11T00:53:36.748Z,79.20
2019-01-11T00:56:09.291Z,77.80
2019-01-11T00:58:42.029Z,79.40
2019-01-11T01:01:14.826Z,78.70
2019-01-11T01:03:46.985Z,78.10
2019-01-11T01:06:19.468Z,77.20
2019-01-11T01:08:51.627Z,76.50
2019-01-11T01:11:23.759Z,76.30
2019-01-11T01:13:56.000Z,74.90
2019-01-11T01:16:28.095Z,74.70
2019-01-11T01:19:00.291Z,74.70
2019-01-11T01:21:32.651Z,73.80
2019-01-11T01:24:04.700Z,73.70
2019-01-11T01:26:37.360Z,73.20
2019-01-11T01:29:09.593Z,71.70
2019-01-11T01:31:42.668Z,70.50
2019-01-11T01:34:15.052Z,70.30
2019-01-11T01:36:47.886Z,71.10
2019-01-11T01:39:20.027Z,69.40
2019-01-11T01:41:52.648Z,70.70
2019-01-11T01:44:24.793Z,69.60
2019-01-11T01:46:57.418Z,68.80
2019-01-11T01:49:29.409Z,68.20
2019-01-11T01:52:01.715Z,68.00
2019-01-11T01:54:34.162Z,67.60
2019-01-11T01:57:06.496Z,65.80
2019-01-11T01:59:38.705Z,66.30
2019-01-11T02:02:10.985Z,65.30
2019-01-11T02:04:42.935Z,66.90
2019-01-11T02:07:15.192Z,65.60
2019-01-11T02:09:47.317Z,65.30
2019-01-11T02:12:19.775Z,64.70
2019-01-11T02:14:52.046Z,63.40
2019-01-11T02:17:24.447Z,63.70
2019-01-11T02:19:56.752Z,62.80
2019-01-11T02:22:29.472Z,63.60
2019-01-11T02:25:02.032Z,62.90
2019-01-11T02:27:34.062Z,62.00
2019-01-11T02:30:09.391Z,61.70
2019-01-11T02:32:41.744Z,61.10
2019-01-11T02:35:14.053Z,60.90
2019-01-11T02:37:46.210Z,60.50
2019-01-11T02:40:18.662Z,59.90
2019-01-11T02:42:50.817Z,59.70
2019-01-11T02:45:25.254Z,59.00
2019-01-11T02:47:57.560Z,59.30
2019-01-11T02:50:29.781Z,59.10
2019-01-11T02:53:02.248Z,59.10
2019-01-11T02:55:34.522Z,58.00
2019-01-11T02:58:06.934Z,57.70
2019-01-11T03:00:40.304Z,57.20
2019-01-11T03:03:12.616Z,57.70
2019-01-11T03:05:45.000Z,56.90
2019-01-11T03:08:17.330Z,56.60
2019-01-11T03:10:50.652Z,57.30
2019-01-11T03:13:23.855Z,56.90
2019-01-11T03:15:56.142Z,56.80
2019-01-11T03:18:28.447Z,56.30
2019-01-11T03:21:01.046Z,57.40
2019-01-11T03:23:33.504Z,55.60
2019-01-11T03:26:05.944Z,54.20
2019-01-11T03:28:38.327Z,54.70
2019-01-11T03:31:12.406Z,53.60
2019-01-11T03:33:45.188Z,54.20
2019-01-11T03:36:17.528Z,55.00
2019-01-11T03:38:50.089Z,55.40
2019-01-11T03:41:22.546Z,53.40
2019-01-11T03:43:55.260Z,53.30
2019-01-11T03:46:27.711Z,52.40
2019-01-11T03:49:00.311Z,54.90
2019-01-11T03:51:32.647Z,53.60
2019-01-11T03:54:04.898Z,52.90
2019-01-11T03:56:37.082Z,53.50
2019-01-11T03:59:09.801Z,52.00
2019-01-11T04:01:42.062Z,51.60
2019-01-11T04:04:14.689Z,50.90
2019-01-11T04:06:46.966Z,50.30
2019-01-11T04:09:19.421Z,50.20
2019-01-11T04:11:51.325Z,52.20
2019-01-11T04:14:23.386Z,50.40
2019-01-11T04:16:55.303Z,49.20
2019-01-11T04:19:27.309Z,50.40
2019-01-11T04:22:00.613Z,49.00
2019-01-11T04:24:33.918Z,48.80
2019-01-11T04:27:06.048Z,47.80
2019-01-11T04:29:38.755Z,48.30
2019-01-11T04:32:10.827Z,48.60
2019-01-11T04:34:43.302Z,47.40
2019-01-11T04:37:16.322Z,47.00
2019-01-11T04:39:48.612Z,46.20
2019-01-11T04:42:40.536Z,45.90
2019-01-11T04:45:12.801Z,46.90
2019-01-11T04:47:45.772Z,48.50
2019-01-11T04:50:19.590Z,48.10
2019-01-11T04:52:51.922Z,48.10
2019-01-11T04:55:23.852Z,47.10
2019-01-11T04:57:56.297Z,47.70
2019-01-11T05:00:28.264Z,48.00
2019-01-11T05:03:00.976Z,46.90
2019-01-11T05:05:33.021Z,46.30
2019-01-11T05:08:05.852Z,45.60
2019-01-11T05:10:38.014Z,44.90
2019-01-11T05:13:11.759Z,43.40
2019-01-11T05:15:43.980Z,44.00
2019-01-11T05:18:16.472Z,44.50
2019-01-11T05:20:48.763Z,46.40
2019-01-11T05:23:20.838Z,45.30
2019-01-11T05:25:53.096Z,44.50
2019-01-11T05:28:25.645Z,43.90
2019-01-11T05:30:59.028Z,42.20
2019-01-11T05:33:31.238Z,42.60
2019-01-11T05:36:04.037Z,42.20
2019-01-11T05:38:36.371Z,43.10
2019-01-11T05:41:09.009Z,42.60
2019-01-11T05:43:41.460Z,41.30
2019-01-11T05:46:13.779Z,40.90
2019-01-11T05:48:45.903Z,42.40
2019-01-11T05:51:18.419Z,44.40
2019-01-11T05:53:50.465Z,41.90
2019-01-11T05:56:22.900Z,41.00
2019-01-11T05:58:56.275Z,41.10
2019-01-11T06:01:28.957Z,41.40
2019-01-11T06:04:01.342Z,40.30
2019-01-11T06:06:35.002Z,42.70
2019-01-11T06:09:08.425Z,41.60
2019-01-11T06:11:41.030Z,40.30
2019-01-11T06:14:13.257Z,41.60
2019-01-11T06:16:45.412Z,40.80
2019-01-11T06:19:17.565Z,41.00
2019-01-11T06:21:50.626Z,38.50
2019-01-11T06:24:22.704Z,39.70
2019-01-11T06:26:55.220Z,38.70
2019-01-11T06:29:27.248Z,41.80
2019-01-11T06:31:59.702Z,38.20
2019-01-11T06:34:31.905Z,37.90
2019-01-11T06:37:04.966Z,37.20
2019-01-11T06:39:37.176Z,37.90
2019-01-11T06:42:10.632Z,38.70
2019-01-11T06:44:42.870Z,40.30
2019-01-11T06:47:15.110Z,38.50
2019-01-11T06:49:47.177Z,38.60
2019-01-11T06:52:19.514Z,38.50
2019-01-11T06:54:51.568Z,40.30
2019-01-11T06:57:23.723Z,41.90
2019-01-11T06:59:55.899Z,40.90
2019-01-11T07:02:28.175Z,40.50
2019-01-11T07:05:00.446Z,42.10
2019-01-11T07:07:33.219Z,41.00
2019-01-11T07:10:07.617Z,41.20
2019-01-11T07:12:40.718Z,38.10
2019-01-11T07:15:13.607Z,36.80
2019-01-11T07:17:46.507Z,35.80
2019-01-11T07:20:18.828Z,33.70
2019-01-11T07:22:51.306Z,35.00
2019-01-11T07:25:23.470Z,34.60
2019-01-11T07:27:57.361Z,33.60
2019-01-11T07:30:30.963Z,33.70
2019-01-11T07:33:04.683Z,36.10
2019-01-11T07:35:38.135Z,36.30
2019-01-11T07:38:11.018Z,36.30
2019-01-11T07:40:43.444Z,36.50
2019-01-11T07:43:16.157Z,36.80
2019-01-11T07:45:48.412Z,37.50
2019-01-11T07:48:21.027Z,37.90
2019-01-11T07:50:53.410Z,37.60
2019-01-11T07:53:26.422Z,35.70
2019-01-11T07:55:58.828Z,35.40
2019-01-11T07:58:30.917Z,35.60
2019-01-11T08:01:03.375Z,38.30
2019-01-11T08:03:35.627Z,35.30
2019-01-11T08:06:08.163Z,35.60
2019-01-11T08:08:40.636Z,36.10
2019-01-11T08:11:13.008Z,35.70
2019-01-11T08:13:45.033Z,35.70
2019-01-11T08:16:17.256Z,36.90
2019-01-11T08:18:49.782Z,36.40
2019-01-11T08:21:22.172Z,40.10
2019-01-11T08:23:54.500Z,36.50
2019-01-11T08:26:27.230Z,35.70
2019-01-11T08:28:59.622Z,35.60
2019-01-11T08:31:34.824Z,36.00
2019-01-11T08:34:06.859Z,36.20
2019-01-11T08:36:39.107Z,37.20
2019-01-11T08:39:11.498Z,37.20
2019-01-11T08:41:43.993Z,36.70
2019-01-11T08:44:16.136Z,37.30
2019-01-11T08:46:48.315Z,39.10
2019-01-11T08:49:21.442Z,37.40
2019-01-11T08:51:53.909Z,36.90
2019-01-11T08:54:26.342Z,37.20
2019-01-11T08:56:58.894Z,37.00
2019-01-11T08:59:31.443Z,36.90
2019-01-11T09:02:03.929Z,37.30
2019-01-11T09:04:36.101Z,36.90
2019-01-11T09:07:08.176Z,37.20
2019-01-11T09:09:40.819Z,37.20
2019-01-11T09:12:12.977Z,37.50
2019-01-11T09:14:46.454Z,37.60
2019-01-11T09:17:19.121Z,37.40
2019-01-11T09:19:51.555Z,38.50
2019-01-11T09:22:23.620Z,38.00
2019-01-11T09:24:55.899Z,38.00
2019-01-11T09:27:28.537Z,37.70
2019-01-11T09:30:00.569Z,38.40
2019-01-11T09:32:32.782Z,39.00
2019-01-11T09:35:24.946Z,39.20
2019-01-11T09:37:57.245Z,39.40
2019-01-11T09:40:30.175Z,39.50
2019-01-11T09:43:03.084Z,40.20
2019-01-11T09:45:37.993Z,39.60
2019-01-11T09:48:10.280Z,39.80
2019-01-11T09:50:42.982Z,39.90
2019-01-11T09:53:15.327Z,39.70
2019-01-11T09:55:47.302Z,40.60
2019-01-11T09:58:19.485Z,40.10
2019-01-11T10:00:51.937Z,40.60
2019-01-11T10:03:24.190Z,40.70
2019-01-11T10:05:56.583Z,41.10
2019-01-11T10:08:28.934Z,41.40
2019-01-11T10:11:01.425Z,41.40
2019-01-11T10:13:33.575Z,41.30
2019-01-11T10:16:06.187Z,41.70
2019-01-11T10:18:38.587Z,42.20
2019-01-11T10:21:11.373Z,42.60
2019-01-11T10:23:43.501Z,42.60
2019-01-11T10:26:15.891Z,42.60
2019-01-11T10:28:49.151Z,43.40
2019-01-11T10:31:23.805Z,43.60
2019-01-11T10:33:55.911Z,44.10
2019-01-11T10:36:28.314Z,43.90
2019-01-11T10:39:00.815Z,44.50
2019-01-11T10:41:35.098Z,45.30
2019-01-11T10:44:07.690Z,44.80
2019-01-11T10:46:41.295Z,45.30
2019-01-11T10:49:13.665Z,46.00
2019-01-11T10:51:45.931Z,46.50
2019-01-11T10:54:19.356Z,47.40
2019-01-11T10:56:51.844Z,47.90
2019-01-11T10:59:23.891Z,48.30
2019-01-11T11:01:56.097Z,48.50
2019-01-11T11:04:28.271Z,48.30
2019-01-11T11:07:01.306Z,48.70
2019-01-11T11:09:33.656Z,49.80
2019-01-11T11:12:06.432Z,51.50
2019-01-11T11:14:38.767Z,50.50
2019-01-11T11:17:10.992Z,51.30
2019-01-11T11:19:43.266Z,51.60
2019-01-11T11:22:15.643Z,52.60
2019-01-11T11:24:47.999Z,52.40
2019-01-11T11:27:20.816Z,52.40
2019-01-11T11:29:52.884Z,52.30
2019-01-11T11:32:26.453Z,52.50
2019-01-11T11:34:58.623Z,53.70
2019-01-11T11:37:31.438Z,54.30
2019-01-11T11:40:03.613Z,53.80
2019-01-11T11:42:36.223Z,55.10
2019-01-11T11:45:09.150Z,54.10
2019-01-11T11:47:41.790Z,54.30
2019-01-11T11:50:14.111Z,54.70
2019-01-11T11:52:47.813Z,55.50
2019-01-11T11:55:20.079Z,56.20
2019-01-11T11:57:52.326Z,58.00
2019-01-11T12:00:25.544Z,58.10
2019-01-11T12:02:57.629Z,57.80
2019-01-11T12:05:29.694Z,59.00
2019-01-11T12:08:01.660Z,57.00
2019-01-11T12:10:33.969Z,57.00
2019-01-11T12:13:06.023Z,58.30
2019-01-11T12:15:38.594Z,58.50
2019-01-11T12:18:11.001Z,59.00
2019-01-11T12:20:43.526Z,59.80
2019-01-11T12:23:17.091Z,60.00
2019-01-11T12:25:49.723Z,60.30
2019-01-11T12:28:22.021Z,59.70
2019-01-11T12:30:54.215Z,59.40
2019-01-11T12:33:27.327Z,58.30
2019-01-11T12:35:59.505Z,59.40
2019-01-11T12:38:32.539Z,59.20
2019-01-11T12:41:06.066Z,59.00
2019-01-11T12:43:38.968Z,58.70
2019-01-11T12:46:11.111Z,59.60
2019-01-11T12:48:43.368Z,59.20
2019-01-11T12:51:34.606Z,59.90
2019-01-11T12:54:08.310Z,60.00
2019-01-11T12:56:40.559Z,60.70
2019-01-11T12:59:13.013Z,61.60
2019-01-11T13:01:45.090Z,62.10
2019-01-11T13:06:59.584Z,63.30
2019-01-11T13:09:31.930Z,63.50
2019-01-11T13:12:04.384Z,62.90
2019-01-11T13:14:37.516Z,63.10
2019-01-11T13:17:10.578Z,63.70
2019-01-11T13:19:42.715Z,64.30
2019-01-11T13:22:14.663Z,64.40
2019-01-11T13:24:48.080Z,63.10
2019-01-11T13:27:20.379Z,63.90
2019-01-11T13:29:53.134Z,63.70
2019-01-11T13:32:25.498Z,63.60
2019-01-11T13:34:57.824Z,63.50
2019-01-11T13:37:30.214Z,64.50
2019-01-11T13:40:02.614Z,63.70
2019-01-11T13:42:35.187Z,63.80
2019-01-11T13:45:08.910Z,63.70
2019-01-11T13:47:41.354Z,64.40
2019-01-11T13:50:16.102Z,64.20
2019-01-11T13:52:48.556Z,64.60
2019-01-11T13:55:21.903Z,65.60
2019-01-11T13:57:53.961Z,63.90
2019-01-11T14:00:25.938Z,64.40
2019-01-11T14:02:58.466Z,65.20
2019-01-11T14:05:30.747Z,66.10
2019-01-11T14:08:03.484Z,66.00
2019-01-11T14:10:35.870Z,66.00
2019-01-11T14:13:09.629Z,66.20
2019-01-11T14:15:41.915Z,66.30
2019-01-11T14:18:14.404Z,65.70
2019-01-11T14:20:46.655Z,65.90
2019-01-11T14:23:19.471Z,65.90
2019-01-11T14:25:52.013Z,66.30
2019-01-11T14:28:36.342Z,66.20
2019-01-11T14:31:08.754Z,65.70
2019-01-11T14:33:42.932Z,65.20
2019-01-11T14:36:16.378Z,65.90
2019-01-11T14:38:49.102Z,66.40
2019-01-11T14:41:21.646Z,66.90
2019-01-11T14:43:54.401Z,67.50
2019-01-11T14:46:26.478Z,67.20
2019-01-11T14:48:58.725Z,68.00
2019-01-11T14:51:30.982Z,68.20
2019-01-11T14:54:03.504Z,67.60
2019-01-11T14:56:36.074Z,67.00
2019-01-11T14:59:08.438Z,66.50
2019-01-11T15:01:41.109Z,68.30
2019-01-11T15:04:13.209Z,68.20
2019-01-11T15:06:45.591Z,68.60
2019-01-11T15:09:17.720Z,67.50
2019-01-11T15:11:49.959Z,68.30
2019-01-11T15:14:22.090Z,67.70
2019-01-11T15:16:54.284Z,68.30
2019-01-11T15:19:27.829Z,67.30
2019-01-11T15:22:00.212Z,67.10
2019-01-11T15:24:32.400Z,67.80
2019-01-11T15:27:04.784Z,66.00
2019-01-11T15:29:37.220Z,66.90
2019-01-11T15:32:09.432Z,67.30
2019-01-11T15:34:42.083Z,67.20
2019-01-11T15:37:15.503Z,67.10
2019-01-11T15:39:48.010Z,67.60
2019-01-11T15:42:20.030Z,67.90
2019-01-11T15:44:52.478Z,68.30
2019-01-11T15:47:24.681Z,68.30
2019-01-11T15:49:56.891Z,67.80
2019-01-11T15:52:33.229Z,68.00
2019-01-11T15:55:03.159Z,68.20
2019-01-11T15:57:36.816Z,68.50
2019-01-11T16:00:11.738Z,69.00
2019-01-11T16:02:44.078Z,69.20
2019-01-11T16:05:16.716Z,68.80
2019-01-11T16:07:50.750Z,69.00
2019-01-11T16:10:23.483Z,68.90
2019-01-11T16:12:55.754Z,70.00
2019-01-11T16:15:30.484Z,69.80
2019-01-11T16:18:05.410Z,69.40
2019-01-11T16:20:37.660Z,68.70
2019-01-11T16:23:10.391Z,68.80
2019-01-11T16:25:42.759Z,71.60
2019-01-11T16:28:15.137Z,72.80
2019-01-11T16:30:47.397Z,73.30
2019-01-11T16:33:32.387Z,73.60
2019-01-11T16:36:04.856Z,74.30
2019-01-11T16:38:37.329Z,74.10
2019-01-11T16:41:09.336Z,73.20
2019-01-11T16:43:42.069Z,72.10
2019-01-11T16:46:33.470Z,71.90
2019-01-11T16:49:05.920Z,72.00
2019-01-11T16:51:38.198Z,72.10
2019-01-11T16:54:11.007Z,72.70
2019-01-11T16:56:43.287Z,72.80
2019-01-11T16:59:15.583Z,72.40
2019-01-11T17:01:47.880Z,72.80
2019-01-11T17:04:20.232Z,72.70
2019-01-11T17:06:52.568Z,72.60
2019-01-11T17:09:25.064Z,72.70
2019-01-11T17:11:57.333Z,72.80
2019-01-11T17:14:29.734Z,73.20
2019-01-11T17:17:01.886Z,73.70
2019-01-11T17:19:34.440Z,73.40
2019-01-11T17:22:07.021Z,74.10
2019-01-11T17:24:39.427Z,74.10
2019-01-11T17:27:11.592Z,74.40
2019-01-11T17:29:47.059Z,75.60
2019-01-11T17:32:17.241Z,77.00
2019-01-11T17:34:49.783Z,78.10
2019-01-11T17:37:21.966Z,78.50
2019-01-11T17:39:54.582Z,78.50
2019-01-11T17:42:26.707Z,78.90
2019-01-11T17:44:58.934Z,78.30
2019-01-11T17:47:31.012Z,78.40
2019-01-11T17:50:03.807Z,77.50
2019-01-11T17:52:36.372Z,76.90
2019-01-11T17:55:09.026Z,77.80
2019-01-11T17:57:41.799Z,78.50
2019-01-11T18:00:16.451Z,79.10
2019-01-11T18:02:48.921Z,78.80
2019-01-11T18:05:21.399Z,78.30
2019-01-11T18:07:53.699Z,77.50
2019-01-11T18:10:25.886Z,77.60
2019-01-11T18:12:58.577Z,77.50
2019-01-11T18:15:30.878Z,77.80
2019-01-11T18:18:03.080Z,76.90
2019-01-11T18:20:36.058Z,76.30
2019-01-11T18:23:08.446Z,76.40
2019-01-11T18:25:40.838Z,76.40
2019-01-11T18:28:13.691Z,76.70
2019-01-11T18:30:46.136Z,77.10
2019-01-11T18:33:18.778Z,76.80
2019-01-11T18:35:51.130Z,77.50
2019-01-11T18:38:23.714Z,76.00
2019-01-11T18:40:55.868Z,75.20
2019-01-11T18:43:28.563Z,75.30
2019-01-11T18:46:00.825Z,75.30
2019-01-11T18:48:33.443Z,75.80
2019-01-11T18:51:06.020Z,76.30
2019-01-11T18:53:38.327Z,76.90
2019-01-11T18:56:10.960Z,77.80
2019-01-11T18:58:43.227Z,78.10
2019-01-11T19:01:15.390Z,77.90
2019-01-11T19:03:47.553Z,77.70
2019-01-11T19:06:19.721Z,77.50
2019-01-11T19:08:51.803Z,77.80
2019-01-11T19:11:23.879Z,78.50
2019-01-11T19:13:56.479Z,79.40
2019-01-11T19:16:29.204Z,80.00
2019-01-11T19:19:01.481Z,80.30
2019-01-11T19:21:33.786Z,79.70
2019-01-11T19:24:06.333Z,80.00
2019-01-11T19:26:38.785Z,80.40
2019-01-11T19:29:11.025Z,80.60
2019-01-11T19:31:43.839Z,80.50
2019-01-11T19:34:15.890Z,81.10
2019-01-11T19:36:48.341Z,80.00
2019-01-11T19:39:20.426Z,79.70
2019-01-11T19:41:52.606Z,78.20
2019-01-11T19:44:24.586Z,78.80
2019-01-11T19:46:56.844Z,78.10
2019-01-11T19:49:29.070Z,77.40
2019-01-11T19:52:01.343Z,77.20
2019-01-11T19:54:34.566Z,77.30
2019-01-11T19:57:07.983Z,77.10
2019-01-11T19:59:40.310Z,76.90
2019-01-11T20:02:12.652Z,76.80
2019-01-11T20:04:44.825Z,77.40
2019-01-11T20:07:17.528Z,77.50
2019-01-11T20:09:49.701Z,77.50
2019-01-11T20:12:22.114Z,77.50
2019-01-11T20:14:54.373Z,77.50
2019-01-11T20:17:26.628Z,77.60
2019-01-11T20:19:58.723Z,77.80
2019-01-11T20:22:31.076Z,78.40
2019-01-11T20:25:03.862Z,78.90
2019-01-11T20:27:36.439Z,78.70
2019-01-11T20:30:11.475Z,78.30
2019-01-11T20:32:44.348Z,77.70
2019-01-11T20:35:17.611Z,78.00
2019-01-11T20:37:50.502Z,78.90
2019-01-11T20:40:22.467Z,78.70
2019-01-11T20:42:55.149Z,78.90
2019-01-11T20:45:27.091Z,80.00
2019-01-11T20:47:59.381Z,79.70
2019-01-11T20:50:31.545Z,78.50
2019-01-11T20:53:04.150Z,79.00
2019-01-11T20:55:36.480Z,78.20
2019-01-11T20:58:08.631Z,78.00
2019-01-11T21:00:40.808Z,78.30
2019-01-11T21:03:13.234Z,78.30
2019-01-11T21:05:45.462Z,78.60
2019-01-11T21:08:18.198Z,78.60
2019-01-11T21:10:50.474Z,79.40
2019-01-11T21:13:23.651Z,79.60
2019-01-11T21:15:55.993Z,80.10
2019-01-11T21:18:28.694Z,80.20
2019-01-11T21:21:01.058Z,79.10
2019-01-11T21:23:33.915Z,79.20
2019-01-11T21:26:06.108Z,78.40
2019-01-11T21:28:38.585Z,78.50
2019-01-11T21:31:10.894Z,78.30
2019-01-11T21:33:43.546Z,79.30
2019-01-11T21:36:15.917Z,80.10
2019-01-11T21:38:48.092Z,80.00
2019-01-11T21:41:20.413Z,80.30
2019-01-11T21:43:53.039Z,80.00
2019-01-11T21:46:25.279Z,79.90
2019-01-11T21:48:57.444Z,79.40
2019-01-11T21:51:30.153Z,80.40
2019-01-11T21:54:02.601Z,80.20
2019-01-11T21:56:35.459Z,80.10
2019-01-11T21:59:07.930Z,80.10
2019-01-11T22:01:40.228Z,80.20
2019-01-11T22:04:12.431Z,80.40
2019-01-11T22:06:44.902Z,80.40
2019-01-11T22:09:17.493Z,80.30
2019-01-11T22:11:49.787Z,80.10
2019-01-11T22:14:22.530Z,79.80
2019-01-11T22:16:55.006Z,80.60
2019-01-11T22:19:27.601Z,81.50
2019-01-11T22:21:59.874Z,81.30
2019-01-11T22:24:33.252Z,82.50
2019-01-11T22:27:05.732Z,82.50
2019-01-11T22:29:38.288Z,82.50
2019-01-11T22:32:10.737Z,81.60
2019-01-11T22:34:43.010Z,81.50
2019-01-11T22:37:15.112Z,81.50
2019-01-11T22:39:47.561Z,82.60
2019-01-11T22:42:19.833Z,83.50
2019-01-11T22:44:52.031Z,83.70
2019-01-11T22:47:24.384Z,84.70
2019-01-11T22:49:57.166Z,84.80
2019-01-11T22:52:29.554Z,84.60
2019-01-11T22:55:02.158Z,84.80
2019-01-11T22:57:34.445Z,84.60
2019-01-11T23:00:09.268Z,83.90
2019-01-11T23:02:41.639Z,84.60
2019-01-11T23:05:14.082Z,85.10
2019-01-11T23:07:46.326Z,85.10
2019-01-11T23:10:20.974Z,85.70
2019-01-11T23:12:54.169Z,85.50
2019-01-11T23:15:26.337Z,85.60
2019-01-11T23:17:59.007Z,85.50
2019-01-11T23:20:31.372Z,85.10
2019-01-11T23:23:03.464Z,85.60
2019-01-11T23:25:36.013Z,85.60
2019-01-11T23:28:08.480Z,85.90
2019-01-11T23:30:40.836Z,85.80
2019-01-11T23:33:13.047Z,85.80
2019-01-11T23:35:45.408Z,86.80
2019-01-11T23:38:17.744Z,87.10
2019-01-11T23:40:49.907Z,87.10
2019-01-11T23:43:22.124Z,86.40
2019-01-11T23:45:54.506Z,86.10
2019-01-11T23:48:26.735Z,86.00
2019-01-11T23:50:59.071Z,85.50
2019-01-11T23:53:32.256Z,86.80
2019-01-11T23:56:04.609Z,85.80
2019-01-11T23:58:36.923Z,85.20
